createdAt,value
2019-04-16T00:05:14.359Z,100712.73
2019-04-16T00:10:26.729Z,100704.48
2019-04-16T00:15:30.793Z,100696.20
2019-04-16T00:20:37.970Z,100695.44
2019-04-16T00:25:42.361Z,100685.61
2019-04-16T00:30:46.503Z,100681.67
2019-04-16T00:35:50.553Z,100678.98
2019-04-16T00:40:54.633Z,100672.84
2019-04-16T00:45:58.749Z,100672.16
2019-04-16T00:51:02.782Z,100670.80
2019-04-16T00:56:06.802Z,100672.26
2019-04-16T01:01:10.895Z,100672.26
2019-04-16T01:06:14.934Z,100664.73
2019-04-16T01:11:18.983Z,100668.50
2019-04-16T01:16:23.827Z,100668.50
2019-04-16T01:21:27.955Z,100661.17
2019-04-16T01:26:32.055Z,100663.59
2019-04-16T01:32:01.363Z,100663.59
2019-04-16T01:37:27.531Z,100662.42
2019-04-16T01:42:32.268Z,100662.42
2019-04-16T01:47:37.328Z,100655.42
2019-04-16T01:52:41.497Z,100648.76
2019-04-16T01:57:45.646Z,100648.76
2019-04-16T02:02:49.767Z,100651.07
2019-04-16T02:07:56.394Z,100659.73
2019-04-16T02:12:59.751Z,100662.59
2019-04-16T02:18:04.005Z,100662.59
2019-04-16T02:23:08.258Z,100663.83
2019-04-16T02:28:12.292Z,100660.75
2019-04-16T02:33:16.444Z,100660.75
2019-04-16T02:38:20.589Z,100663.55
2019-04-16T02:43:24.894Z,100667.20
2019-04-16T02:48:29.127Z,100669.09
2019-04-16T02:53:54.452Z,100664.67
2019-04-16T02:59:09.692Z,100677.74
2019-04-16T03:04:11.898Z,100666.22
2019-04-16T03:09:16.075Z,100662.36
2019-04-16T03:14:20.171Z,100662.36
2019-04-16T03:19:29.084Z,100662.94
2019-04-16T03:24:33.119Z,100652.25
2019-04-16T03:29:37.460Z,100652.34
2019-04-16T03:34:41.579Z,100646.59
2019-04-16T03:39:45.719Z,100645.25
2019-04-16T03:44:49.758Z,100645.25
2019-04-16T03:49:56.369Z,100654.76
2019-04-16T03:54:59.609Z,100658.96
2019-04-16T04:00:03.817Z,100658.68
2019-04-16T04:05:08.137Z,100654.27
2019-04-16T04:10:12.558Z,100654.27
2019-04-16T04:15:16.689Z,100651.64
2019-04-16T04:20:20.695Z,100656.33
2019-04-16T04:25:24.783Z,100637.17
2019-04-16T04:30:29.658Z,100667.63
2019-04-16T04:35:33.897Z,100670.41
2019-04-16T04:40:44.731Z,100666.95
2019-04-16T04:45:43.763Z,100661.27
2019-04-16T04:50:47.794Z,100661.27
2019-04-16T04:55:54.461Z,100659.92
2019-04-16T05:00:57.807Z,100660.88
2019-04-16T05:06:02.387Z,100658.30
2019-04-16T05:11:06.403Z,100658.30
2019-04-16T05:16:10.570Z,100657.98
2019-04-16T05:21:17.598Z,100657.50
2019-04-16T05:26:20.462Z,100660.66
2019-04-16T05:31:25.688Z,100648.65
2019-04-16T05:36:30.166Z,100670.66
2019-04-16T05:41:34.215Z,100657.67
2019-04-16T05:46:38.448Z,100657.67
2019-04-16T05:51:42.534Z,100672.86
2019-04-16T05:56:52.373Z,100657.19
2019-04-16T06:02:01.657Z,100673.72
2019-04-16T06:07:07.663Z,100656.33
2019-04-16T06:12:11.623Z,100651.88
2019-04-16T06:17:34.667Z,100680.45
2019-04-16T06:23:00.586Z,100670.55
2019-04-16T06:28:20.381Z,100666.14
2019-04-16T06:33:38.763Z,100666.14
2019-04-16T06:39:00.705Z,100672.77
2019-04-16T06:44:09.576Z,100676.31
2019-04-16T06:49:35.514Z,100670.02
2019-04-16T06:54:52.867Z,100670.02
2019-04-16T07:00:02.363Z,100669.53
2019-04-16T07:05:22.625Z,100669.53
2019-04-16T07:10:43.738Z,100669.33
2019-04-16T07:15:36.534Z,100664.53
2019-04-16T07:20:42.325Z,100667.98
2019-04-16T07:25:46.874Z,100667.98
2019-04-16T07:31:14.875Z,100668.34
2019-04-16T07:36:28.114Z,100665.28
2019-04-16T07:42:07.758Z,100675.06
2019-04-16T07:47:20.027Z,100669.69
2019-04-16T07:52:43.200Z,100668.83
2019-04-16T07:57:47.305Z,100672.00
2019-04-16T08:02:53.651Z,100672.00
2019-04-16T08:07:57.174Z,100676.03
2019-04-16T08:13:08.780Z,100669.79
2019-04-16T08:18:12.889Z,100669.31
2019-04-16T08:23:44.966Z,100663.55
2019-04-16T08:28:52.448Z,100662.59
2019-04-16T08:33:56.486Z,100662.59
2019-04-16T08:39:05.831Z,100657.70
2019-04-16T08:44:09.579Z,100651.81
2019-04-16T08:49:15.056Z,100651.81
2019-04-16T08:54:18.906Z,100652.97
2019-04-16T08:59:23.015Z,100652.97
2019-04-16T09:04:27.212Z,100671.17
2019-04-16T09:09:49.466Z,100666.45
2019-04-16T09:14:55.982Z,100666.45
2019-04-16T09:20:24.586Z,100661.67
2019-04-16T09:25:42.496Z,100654.13
2019-04-16T09:31:10.358Z,100662.04
2019-04-16T09:36:32.404Z,100661.09
2019-04-16T09:41:39.802Z,100671.89
2019-04-16T09:46:51.142Z,100666.00
2019-04-16T09:51:51.088Z,100668.81
2019-04-16T09:56:56.815Z,100662.92
2019-04-16T10:02:35.363Z,100662.92
2019-04-16T10:07:40.285Z,100670.57
2019-04-16T10:12:45.173Z,100670.57
2019-04-16T10:17:49.279Z,100666.66
2019-04-16T10:22:53.442Z,100662.47
2019-04-16T10:28:05.689Z,100658.58
2019-04-16T10:33:09.796Z,100638.91
2019-04-16T10:38:31.551Z,100635.75
2019-04-16T10:43:49.588Z,100649.65
2019-04-16T10:49:00.176Z,100638.56
2019-04-16T10:54:10.062Z,100643.27
2019-04-16T10:59:31.991Z,100640.16
2019-04-16T11:04:43.293Z,100640.16
2019-04-16T11:09:47.802Z,100622.53
2019-04-16T11:14:51.887Z,100627.41
2019-04-16T11:19:56.202Z,100619.34
2019-04-16T11:25:00.305Z,100617.22
2019-04-16T11:30:07.020Z,100617.22
2019-04-16T11:35:13.379Z,100624.05
2019-04-16T11:40:17.324Z,100613.78
2019-04-16T11:45:21.525Z,100613.02
2019-04-16T11:50:25.701Z,100611.19
2019-04-16T11:55:29.838Z,100611.19
2019-04-16T12:00:48.358Z,100605.02
2019-04-16T12:06:27.390Z,100603.50
2019-04-16T12:11:22.675Z,100611.47
2019-04-16T12:16:51.856Z,100611.47
2019-04-16T12:22:13.667Z,100589.19
2019-04-16T12:27:36.685Z,100588.80
2019-04-16T12:32:52.494Z,100584.59
2019-04-16T12:38:11.999Z,100588.25
2019-04-16T12:43:22.699Z,100589.69
2019-04-16T12:48:44.760Z,100581.62
2019-04-16T12:54:07.835Z,100581.62
2019-04-16T12:59:23.071Z,100580.38
2019-04-16T13:04:35.815Z,100571.60
2019-04-16T13:09:48.575Z,100567.49
2019-04-16T13:15:07.223Z,100553.35
2019-04-16T13:20:29.501Z,100562.69
2019-04-16T13:25:40.472Z,100566.91
2019-04-16T13:30:44.549Z,100566.91
2019-04-16T13:35:48.697Z,100564.39
2019-04-16T13:40:53.254Z,100553.73
2019-04-16T13:45:58.886Z,100558.63
2019-04-16T13:51:06.923Z,100560.36
2019-04-16T13:56:30.475Z,100560.36
2019-04-16T14:01:39.349Z,100536.44
2019-04-16T14:06:46.126Z,100536.44
2019-04-16T14:11:51.317Z,100551.52
2019-04-16T14:16:55.888Z,100550.83
2019-04-16T14:22:00.183Z,100539.77
2019-04-16T14:27:04.595Z,100548.94
2019-04-16T14:32:09.005Z,100554.88
2019-04-16T14:37:13.385Z,100559.22
2019-04-16T14:42:19.146Z,100561.53
2019-04-16T14:47:23.408Z,100566.81
2019-04-16T14:52:27.465Z,100547.39
2019-04-16T14:57:31.505Z,100557.38
2019-04-16T15:02:46.466Z,100562.66
2019-04-16T15:07:57.917Z,100562.47
2019-04-16T15:13:21.004Z,100571.78
2019-04-16T15:18:42.966Z,100577.64
2019-04-16T15:24:04.984Z,100565.57
2019-04-16T15:29:30.751Z,100565.57
2019-04-16T15:34:41.939Z,100569.00
2019-04-16T15:39:59.238Z,100561.51
2019-04-16T15:45:37.507Z,100561.51
2019-04-16T15:51:34.497Z,100559.93
2019-04-16T15:57:00.081Z,100577.30
2019-04-16T16:02:26.048Z,100566.72
2019-04-16T16:07:34.162Z,100578.20
2019-04-16T16:12:38.207Z,100567.42
2019-04-16T16:18:18.866Z,100581.28
2019-04-16T16:23:23.212Z,100574.69
2019-04-16T16:28:27.535Z,100590.93
2019-04-16T16:33:31.550Z,100595.08
2019-04-16T16:38:35.598Z,100596.25
2019-04-16T16:43:39.629Z,100577.28
2019-04-16T16:48:43.934Z,100601.66
2019-04-16T16:53:59.078Z,100593.70
2019-04-16T16:59:07.414Z,100596.77
2019-04-16T17:04:17.748Z,100603.23
2019-04-16T17:09:40.739Z,100611.45
2019-04-16T17:14:44.743Z,100613.94
2019-04-16T17:19:50.751Z,100613.94
2019-04-16T17:24:54.680Z,100610.95
2019-04-16T17:29:58.728Z,100613.08
2019-04-16T17:35:06.392Z,100613.80
2019-04-16T17:40:26.922Z,100616.44
2019-04-16T17:45:47.931Z,100616.52
2019-04-16T17:51:05.558Z,100630.03
2019-04-16T17:56:37.201Z,100623.41
2019-04-16T18:01:58.828Z,100633.60
2019-04-16T18:07:30.716Z,100650.31
2019-04-16T18:12:55.104Z,100652.28
2019-04-16T18:18:16.925Z,100650.81
2019-04-16T18:23:27.813Z,100650.81
2019-04-16T18:28:39.268Z,100680.80
2019-04-16T18:34:01.569Z,100686.14
2019-04-16T18:39:25.173Z,100686.14
2019-04-16T18:44:51.319Z,100700.81
2019-04-16T18:49:59.347Z,100707.96
2019-04-16T18:55:03.678Z,100722.88
2019-04-16T19:00:18.498Z,100723.34
2019-04-16T19:05:22.530Z,100727.81
2019-04-16T19:10:26.901Z,100727.81
2019-04-16T19:15:30.931Z,100739.28
2019-04-16T19:20:34.971Z,100732.17
2019-04-16T19:25:39.050Z,100752.91
2019-04-16T19:30:43.212Z,100752.08
2019-04-16T19:35:51.185Z,100754.06
2019-04-16T19:40:53.280Z,100741.78
2019-04-16T19:45:57.298Z,100760.89
2019-04-16T19:51:01.301Z,100762.42
2019-04-16T19:56:05.409Z,100772.68
2019-04-16T20:01:11.945Z,100774.81
2019-04-16T20:06:15.311Z,100779.55
2019-04-16T20:11:21.370Z,100778.30
2019-04-16T20:16:25.090Z,100782.37
2019-04-16T20:21:29.098Z,100778.40
2019-04-16T20:26:33.598Z,100778.40
2019-04-16T20:31:37.733Z,100789.27
2019-04-16T20:36:41.787Z,100792.45
2019-04-16T20:41:52.740Z,100796.12
2019-04-16T20:46:53.783Z,100796.12
2019-04-16T20:52:00.451Z,100797.75
2019-04-16T20:57:03.769Z,100806.39
2019-04-16T21:02:07.914Z,100793.52
2019-04-16T21:07:15.074Z,100786.48
2019-04-16T21:12:17.929Z,100803.91
2019-04-16T21:17:22.052Z,100805.84
2019-04-16T21:22:28.101Z,100808.61
2019-04-16T21:27:34.280Z,100810.45
2019-04-16T21:32:54.020Z,100814.11
2019-04-16T21:38:15.985Z,100802.86
2019-04-16T21:43:20.115Z,100816.43
2019-04-16T21:48:26.994Z,100825.48
2019-04-16T21:53:29.925Z,100816.43
2019-04-16T21:58:33.950Z,100827.69
2019-04-16T22:03:42.204Z,100809.87
2019-04-16T22:08:46.251Z,100826.90
2019-04-16T22:13:51.294Z,100826.90
2019-04-16T22:18:55.588Z,100835.57
2019-04-16T22:25:01.247Z,100840.09
2019-04-16T22:30:06.542Z,100837.02
2019-04-16T22:35:10.807Z,100837.02
2019-04-16T22:40:51.653Z,100834.50
2019-04-16T22:45:59.448Z,100838.27
2019-04-16T22:51:03.607Z,100841.52
2019-04-16T22:56:07.588Z,100842.38
2019-04-16T23:01:14.158Z,100840.27
2019-04-16T23:06:17.566Z,100822.55
2019-04-16T23:11:23.758Z,100843.34
2019-04-16T23:16:27.363Z,100834.57
2019-04-16T23:21:31.382Z,100834.57
2019-04-16T23:26:35.498Z,100853.63
2019-04-16T23:31:39.512Z,100839.36
2019-04-16T23:36:44.613Z,100836.95
2019-04-16T23:41:49.840Z,100850.62
2019-04-16T23:47:11.945Z,100857.08
2019-04-16T23:52:18.962Z,100857.08
2019-04-16T23:57:28.132Z,100833.76
